Aviation Digital Data Service (ADDS)

Output produced by METARs form (1545 UTC 23 September 2020)
found at http://aviationweather.gov/metar/data/
 
KLFK 231143Z 2312/2412 02008KT P6SM -RA OVC004 
     TEMPO 2312/2315 2SM -SHRA BR OVC004 
     FM231500 02007KT 4SM -RA BR BKN007 
     FM232100 36011KT 5SM -DZ BR OVC007 
     FM240000 35004KT P6SM OVC015 
     FM240900 35005KT P6SM OVC007